Time;durP1;ratioP1;P1;durP2;ratioP2;P2;SDS_P1;SDS_P2;PMS_P1;PMS_P2;Temp;Humidity;BMP_temperature;BMP_pressure;BME280_temperature;BME280_humidity;BME280_pressure;Samples;Min_cycle;Max_cycle;Signal;HPM_P1;HPM_P2
2022/06/12 00:05:06;;;;;;;;;;;16.60;99.90;;;;;;20880303;28;20491;-75
2022/06/12 00:15:09;;;;;;;2.53;1.92;;;16.60;99.90;;;;;;20872685;28;19931;-75
2022/06/12 00:25:12;;;;;;;4.20;2.45;;;16.20;99.90;;;;;;20874778;28;20036;-76
2022/06/12 00:35:13;;;;;;;4.88;2.60;;;16.20;99.90;;;;;;20880999;28;20499;-76
2022/06/12 00:45:32;;;;;;;4.50;2.40;;;16.30;99.90;;;;;;20871959;28;20059;-76
2022/06/12 00:56:14;;;;;;;6.03;3.20;;;16.10;99.90;;;;;;20864781;28;20424;-75
2022/06/12 01:16:40;;;;;;;2.67;2.00;;;15.90;99.90;;;;;;20831066;28;20042;-77
2022/06/12 01:27:01;;;;;;;7.80;2.13;;;15.80;99.90;;;;;;20829199;28;20491;-76
2022/06/12 01:37:27;;;;;;;3.63;1.88;;;15.60;99.90;;;;;;20827878;28;20072;-76
2022/06/12 01:47:46;;;;;;;3.38;1.80;;;15.30;99.90;;;;;;20827930;28;20032;-76
2022/06/12 01:58:12;;;;;;;3.45;2.65;;;15.30;99.90;;;;;;20825703;28;20112;-76
2022/06/12 02:08:17;;;;;;;5.78;2.95;;;15.30;99.90;;;;;;20825966;28;20037;-75
2022/06/12 02:18:39;;;;;;;5.93;2.85;;;15.10;99.90;;;;;;20824203;28;20041;-76
2022/06/12 02:28:44;;;;;;;4.97;3.17;;;15.00;99.90;;;;;;20840040;28;20038;-75
2022/06/12 02:38:56;;;;;;;4.60;3.63;;;14.90;99.90;;;;;;20823445;28;20500;-76
2022/06/12 02:48:57;;;;;;;4.27;3.37;;;14.80;99.90;;;;;;20824249;28;20040;-75
2022/06/12 02:59:42;;;;;;;7.40;3.47;;;14.60;99.90;;;;;;20827193;28;20038;-76
2022/06/12 03:09:43;;;;;;;5.88;3.70;;;14.60;99.90;;;;;;20831304;28;20038;-76
2022/06/12 03:19:51;;;;;;;5.27;3.67;;;14.60;99.90;;;;;;20839025;28;20030;-75
2022/06/12 03:30:13;;;;;;;5.45;3.78;;;14.40;99.90;;;;;;20837622;28;20041;-74
2022/06/12 03:40:18;;;;;;;4.77;3.50;;;14.20;99.90;;;;;;20837903;28;20111;-76
2022/06/12 03:50:44;;;;;;;5.13;3.20;;;14.10;99.90;;;;;;20835819;28;20041;-74
2022/06/12 04:00:49;;;;;;;6.25;2.83;;;14.00;99.90;;;;;;20835705;28;20536;-76
2022/06/12 04:10:52;;;;;;;5.93;2.33;;;13.70;99.90;;;;;;20835171;28;20384;-76
2022/06/12 04:21:04;;;;;;;6.55;3.13;;;13.70;99.90;;;;;;20833480;28;20376;-76
2022/06/12 04:31:18;;;;;;;6.13;3.13;;;13.80;99.90;;;;;;20843462;22;20064;-78
2022/06/12 04:41:24;;;;;;;4.63;3.03;;;14.20;99.90;;;;;;20839056;28;20047;-77
2022/06/12 04:51:26;;;;;;;4.88;2.95;;;14.40;99.90;;;;;;20837557;28;20041;-78
2022/06/12 05:01:27;;;;;;;4.90;3.10;;;14.60;99.90;;;;;;20814583;28;20119;-78
2022/06/12 05:11:28;;;;;;;6.83;3.60;;;14.80;99.90;;;;;;20820853;28;20034;-77
2022/06/12 05:21:30;;;;;;;6.57;3.40;;;15.10;99.90;;;;;;20740101;28;20096;-78
2022/06/12 05:31:32;;;;;;;9.23;3.67;;;15.20;99.90;;;;;;20777028;28;20140;-78
2022/06/12 05:41:33;;;;;;;9.93;2.83;;;15.60;99.90;;;;;;20768289;28;20053;-77
2022/06/12 05:51:37;;;;;;;6.50;3.10;;;16.10;99.90;;;;;;20785978;28;20039;-78
2022/06/12 06:01:40;;;;;;;5.80;3.28;;;16.30;99.90;;;;;;20766155;28;20042;-78
2022/06/12 06:11:41;;;;;;;5.00;2.88;;;16.80;99.90;;;;;;20729774;28;20045;-78
2022/06/12 06:21:42;;;;;;;3.75;2.75;;;17.50;99.90;;;;;;20724924;28;20037;-79
2022/06/12 06:31:43;;;;;;;5.20;2.90;;;18.00;99.90;;;;;;20724362;28;20064;-77
2022/06/12 06:41:43;;;;;;;5.97;2.83;;;18.60;99.90;;;;;;20740298;28;20034;-77
2022/06/12 06:51:44;;;;;;;11.47;2.47;;;18.70;99.90;;;;;;20740514;28;20152;-77
2022/06/12 07:01:45;;;;;;;3.93;2.30;;;19.20;99.90;;;;;;20737651;28;20073;-78
2022/06/12 07:11:46;;;;;;;2.50;2.20;;;19.80;99.90;;;;;;20779303;28;20049;-78
2022/06/12 07:21:47;;;;;;;6.77;2.50;;;20.40;99.90;;;;;;20740126;28;20463;-78
2022/06/12 07:31:48;;;;;;;3.97;2.33;;;21.10;99.90;;;;;;20736748;28;20045;-77
2022/06/12 07:41:50;;;;;;;3.05;1.70;;;21.70;99.90;;;;;;20736320;28;20060;-77
2022/06/12 07:51:53;;;;;;;2.58;2.10;;;22.10;99.90;;;;;;20734641;28;20046;-78
2022/06/12 08:01:54;;;;;;;3.20;1.88;;;22.10;99.90;;;;;;20735482;28;20116;-78
2022/06/12 08:11:55;;;;;;;3.15;2.03;;;23.10;99.90;;;;;;20734570;28;20140;-77
2022/06/12 08:21:58;;;;;;;3.38;2.00;;;24.10;99.90;;;;;;20733285;28;20715;-77
2022/06/12 08:32:04;;;;;;;5.70;1.80;;;24.50;99.90;;;;;;20753381;28;20046;-77
2022/06/12 08:42:44;;;;;;;2.63;1.50;;;25.60;99.90;;;;;;20735205;28;20057;-78
2022/06/12 08:53:09;;;;;;;6.53;1.90;;;25.90;99.90;;;;;;20684058;28;20045;-78
2022/06/12 09:03:19;;;;;;;2.67;1.77;;;26.90;99.90;;;;;;20718929;28;20045;-78
2022/06/12 09:13:26;;;;;;;2.72;1.73;;;27.60;99.90;;;;;;20773062;28;20381;-78
2022/06/12 09:23:39;;;;;;;4.93;1.90;;;27.20;99.90;;;;;;20733238;28;20600;-76
2022/06/12 09:33:55;;;;;;;2.83;1.58;;;27.20;99.90;;;;;;20733819;28;20442;-78
2022/06/12 09:44:07;;;;;;;5.38;1.67;;;27.50;99.90;;;;;;20773651;28;20041;-76
2022/06/12 09:54:23;;;;;;;3.92;1.33;;;28.60;99.90;;;;;;20767803;28;20061;-76
2022/06/12 10:04:44;;;;;;;2.38;1.25;;;29.00;99.90;;;;;;20768801;28;20563;-77
2022/06/12 10:14:51;;;;;;;2.42;1.38;;;30.20;99.90;;;;;;20774717;28;20073;-75
2022/06/12 10:24:56;;;;;;;2.17;1.55;;;30.50;99.90;;;;;;20765526;28;20538;-77
2022/06/12 10:35:26;;;;;;;1.58;1.10;;;29.40;99.90;;;;;;20849539;23;20538;-75
2022/06/12 10:45:35;;;;;;;2.13;1.20;;;31.10;99.90;;;;;;20850361;28;20115;-77
2022/06/12 10:55:38;;;;;;;2.20;1.25;;;30.60;99.90;;;;;;20915837;28;20041;-77
2022/06/12 11:06:04;;;;;;;2.85;1.13;;;30.60;99.90;;;;;;20895917;28;20076;-77
2022/06/12 11:16:29;;;;;;;2.15;1.30;;;30.60;99.90;;;;;;20862148;28;20443;-76
2022/06/12 11:26:41;;;;;;;2.15;1.25;;;31.80;99.90;;;;;;20825735;28;20071;-75
2022/06/12 11:36:53;;;;;;;3.38;0.90;;;32.50;99.90;;;;;;20858511;28;20053;-75
2022/06/12 11:47:25;;;;;;;3.70;1.20;;;30.40;99.90;;;;;;20855454;28;20045;-77
2022/06/12 11:57:36;;;;;;;1.08;0.90;;;31.10;99.90;;;;;;20825684;28;20116;-76
2022/06/12 12:07:56;;;;;;;3.15;0.88;;;32.60;99.80;;;;;;20824778;28;20045;-77
2022/06/12 12:17:59;;;;;;;1.58;0.77;;;32.00;97.10;;;;;;20824380;28;20053;-75
2022/06/12 12:28:14;;;;;;;0.88;0.70;;;31.80;97.20;;;;;;20853949;28;20111;-75
2022/06/12 12:48:49;;;;;;;0.82;0.50;;;31.90;89.90;;;;;;20839676;28;20044;-77
2022/06/12 12:58:58;;;;;;;1.20;0.70;;;31.50;78.50;;;;;;20852724;28;20674;-76
2022/06/12 13:09:41;;;;;;;3.60;0.60;;;32.60;82.00;;;;;;20872201;28;20041;-76
2022/06/12 13:20:09;;;;;;;2.90;0.40;;;31.70;83.80;;;;;;20853256;28;20079;-77
2022/06/12 13:30:19;;;;;;;0.65;0.32;;;32.50;78.10;;;;;;20821213;28;20045;-77
2022/06/12 13:40:32;;;;;;;1.30;0.33;;;31.50;81.40;;;;;;20818661;28;20521;-76
2022/06/12 13:50:38;;;;;;;1.55;0.75;;;32.10;80.00;;;;;;20824565;28;20443;-77
2022/06/12 14:00:53;;;;;;;1.08;0.60;;;32.20;84.60;;;;;;20814416;28;20127;-76
2022/06/12 14:10:56;;;;;;;0.50;0.50;;;32.00;80.90;;;;;;20823731;28;20040;-77
2022/06/12 14:21:05;;;;;;;4.05;0.75;;;31.10;84.00;;;;;;20849321;28;20067;-76
2022/06/12 14:31:20;;;;;;;1.27;0.52;;;31.80;85.70;;;;;;20844384;28;20045;-76
2022/06/12 14:41:27;;;;;;;1.08;0.43;;;31.90;83.40;;;;;;20840374;28;20056;-76
2022/06/12 14:51:27;;;;;;;4.47;0.52;;;31.90;79.90;;;;;;20879178;28;20075;-75
2022/06/12 15:01:28;;;;;;;1.15;0.60;;;31.80;79.40;;;;;;20894538;28;20052;-76
2022/06/12 15:11:30;;;;;;;3.73;0.80;;;31.80;83.10;;;;;;20839513;28;20037;-76
2022/06/12 15:21:36;;;;;;;1.30;0.80;;;31.30;88.60;;;;;;20866626;28;20302;-76
2022/06/12 15:31:36;;;;;;;4.82;0.70;;;30.90;85.20;;;;;;20827074;28;20045;-75
2022/06/12 15:41:37;;;;;;;1.67;0.65;;;30.40;89.10;;;;;;20829269;28;20044;-76
2022/06/12 15:51:38;;;;;;;2.47;0.73;;;30.50;86.10;;;;;;20853332;28;20041;-73
2022/06/12 16:01:39;;;;;;;2.37;0.60;;;30.60;87.50;;;;;;20889208;28;20422;-76
2022/06/12 16:11:43;;;;;;;1.80;0.82;;;30.50;82.80;;;;;;20862652;28;20367;-76
2022/06/12 16:21:44;;;;;;;1.95;0.68;;;30.40;82.50;;;;;;20818163;28;20046;-76
2022/06/12 16:31:45;;;;;;;3.50;0.60;;;30.20;82.80;;;;;;20815635;28;20044;-76
2022/06/12 16:41:45;;;;;;;1.60;0.65;;;30.10;82.00;;;;;;20814896;28;20045;-74
2022/06/12 16:52:14;;;;;;;4.53;1.25;;;29.70;84.00;;;;;;20818063;28;20041;-75
2022/06/12 17:02:17;;;;;;;1.70;0.70;;;29.70;83.30;;;;;;20851500;28;20562;-74
2022/06/12 17:12:19;;;;;;;2.78;0.75;;;29.50;84.50;;;;;;20902891;28;20045;-75
2022/06/12 17:22:22;;;;;;;2.42;0.90;;;29.50;82.30;;;;;;20910716;28;20037;-75
2022/06/12 17:32:24;;;;;;;3.15;0.90;;;29.10;87.10;;;;;;20911348;28;20048;-76
2022/06/12 17:42:26;;;;;;;1.58;1.02;;;29.00;89.10;;;;;;20908814;28;20059;-75
2022/06/12 17:52:27;;;;;;;2.30;1.00;;;29.10;91.30;;;;;;20910300;28;20039;-75
2022/06/12 18:02:28;;;;;;;1.48;0.70;;;29.00;90.30;;;;;;20909367;28;20065;-75
2022/06/12 18:12:28;;;;;;;2.88;1.02;;;29.80;90.30;;;;;;20908765;28;20037;-75
2022/06/12 18:22:29;;;;;;;3.28;0.70;;;29.80;90.00;;;;;;20908104;28;20044;-75
2022/06/12 18:32:32;;;;;;;4.15;1.20;;;30.10;89.80;;;;;;20909595;28;20159;-73
2022/06/12 18:42:33;;;;;;;1.50;0.80;;;27.90;91.60;;;;;;20907292;28;20048;-75
2022/06/12 18:52:34;;;;;;;1.52;0.80;;;27.00;92.30;;;;;;20907038;28;20037;-75
2022/06/12 19:02:34;;;;;;;6.90;1.27;;;26.50;93.20;;;;;;20906879;28;20391;-75
2022/06/12 19:12:35;;;;;;;2.45;1.23;;;26.00;96.60;;;;;;20906444;28;20040;-75
2022/06/12 19:22:37;;;;;;;5.00;1.45;;;25.10;99.60;;;;;;20906501;28;20114;-76
2022/06/12 19:32:38;;;;;;;2.45;1.38;;;24.80;98.50;;;;;;20906083;28;20049;-76
2022/06/12 19:42:39;;;;;;;2.55;1.23;;;24.60;98.60;;;;;;20869595;28;20037;-76
2022/06/12 19:52:41;;;;;;;7.40;1.70;;;23.90;99.90;;;;;;20865913;28;20068;-77
2022/06/12 20:02:43;;;;;;;5.63;1.73;;;23.80;99.90;;;;;;20880733;28;20041;-76
2022/06/12 20:12:44;;;;;;;7.05;1.85;;;23.80;99.90;;;;;;20867945;28;20041;-76
2022/06/12 20:22:45;;;;;;;7.80;1.33;;;23.90;99.90;;;;;;20830005;28;20039;-75
2022/06/12 20:32:46;;;;;;;;;;;23.80;99.90;;;;;;20827891;28;20037;-76
2022/06/12 20:42:47;;;;;;;3.23;2.00;;;23.70;99.90;;;;;;20852117;28;20410;-76
2022/06/12 20:52:48;;;;;;;2.42;1.85;;;23.50;99.90;;;;;;20873050;28;20278;-76
2022/06/12 21:02:49;;;;;;;7.13;3.40;;;23.30;99.90;;;;;;20881069;28;20033;-76
2022/06/12 21:12:50;;;;;;;5.87;2.03;;;23.20;99.90;;;;;;20880222;28;20033;-76
2022/06/12 21:22:57;;;;;;;;;;;23.00;99.90;;;;;;20880101;28;20495;-76
2022/06/12 21:32:58;;;;;;;2.85;1.95;;;22.90;99.90;;;;;;20878690;28;20048;-76
2022/06/12 21:42:59;;;;;;;5.30;2.00;;;22.60;99.90;;;;;;20869842;28;20503;-76
2022/06/12 22:03:19;;;;;;;3.72;2.30;;;22.40;99.90;;;;;;20870518;28;20095;-77
2022/06/12 22:13:21;;;;;;;4.57;1.50;;;22.10;99.90;;;;;;20868264;28;20033;-76
2022/06/12 22:23:22;;;;;;;5.55;2.50;;;22.20;99.90;;;;;;20851574;28;20306;-77
2022/06/12 22:33:23;;;;;;;5.30;2.85;;;22.30;99.90;;;;;;20825528;28;20045;-76
2022/06/12 22:43:23;;;;;;;2.87;1.90;;;21.90;99.90;;;;;;20825534;28;20040;-76
2022/06/12 22:53:24;;;;;;;6.23;2.07;;;21.30;99.90;;;;;;20825991;28;20042;-76
2022/06/12 23:03:25;;;;;;;3.53;2.00;;;21.30;99.90;;;;;;20829243;28;20457;-76
2022/06/12 23:13:26;;;;;;;3.43;1.80;;;21.30;99.90;;;;;;20823573;28;20042;-76
2022/06/12 23:23:28;;;;;;;1.95;1.65;;;21.20;99.90;;;;;;20846547;28;20038;-77
2022/06/12 23:33:30;;;;;;;2.88;1.88;;;21.00;99.90;;;;;;20838122;28;20046;-76
2022/06/12 23:43:34;;;;;;;4.18;2.10;;;21.20;99.90;;;;;;20837455;28;20037;-76
2022/06/12 23:53:35;;;;;;;5.30;2.47;;;20.30;99.90;;;;;;20836760;28;20686;-76
